sensor_id;sensor_type;location;lat;lon;timestamp;temperature;humidity
8856;DHT22;4464;50.882;4.730;2022-09-20T00:00:49;13.20;99.90
8856;DHT22;4464;50.882;4.730;2022-09-20T00:03:15;13.20;99.90
8856;DHT22;4464;50.882;4.730;2022-09-20T00:05:43;13.10;99.90
8856;DHT22;4464;50.882;4.730;2022-09-20T00:08:14;13.10;99.90
8856;DHT22;4464;50.882;4.730;2022-09-20T00:10:41;13.00;99.90
8856;DHT22;4464;50.882;4.730;2022-09-20T00:13:11;12.90;99.90
8856;DHT22;4464;50.882;4.730;2022-09-20T00:15:42;12.90;99.90
8856;DHT22;4464;50.882;4.730;2022-09-20T00:18:09;13.00;99.90
8856;DHT22;4464;50.882;4.730;2022-09-20T00:20:34;12.90;99.90
8856;DHT22;4464;50.882;4.730;2022-09-20T00:23:03;12.80;99.90
8856;DHT22;4464;50.882;4.730;2022-09-20T00:25:29;12.60;99.90
8856;DHT22;4464;50.882;4.730;2022-09-20T00:27:55;12.40;99.90
8856;DHT22;4464;50.882;4.730;2022-09-20T00:30:23;12.40;99.90
8856;DHT22;4464;50.882;4.730;2022-09-20T00:32:51;12.40;99.90
8856;DHT22;4464;50.882;4.730;2022-09-20T00:35:17;12.30;99.90
8856;DHT22;4464;50.882;4.730;2022-09-20T00:37:48;12.20;99.90
8856;DHT22;4464;50.882;4.730;2022-09-20T00:40:17;12.10;99.90
8856;DHT22;4464;50.882;4.730;2022-09-20T00:42:47;12.00;99.90
8856;DHT22;4464;50.882;4.730;2022-09-20T00:45:19;12.00;99.90
8856;DHT22;4464;50.882;4.730;2022-09-20T00:48:17;11.80;99.90
8856;DHT22;4464;50.882;4.730;2022-09-20T00:50:56;11.70;99.90
8856;DHT22;4464;50.882;4.730;2022-09-20T00:53:37;11.80;99.90
8856;DHT22;4464;50.882;4.730;2022-09-20T00:56:21;11.70;99.90
8856;DHT22;4464;50.882;4.730;2022-09-20T00:58:53;11.60;99.90
8856;DHT22;4464;50.882;4.730;2022-09-20T01:01:24;11.60;99.90
8856;DHT22;4464;50.882;4.730;2022-09-20T01:03:53;11.60;99.90
8856;DHT22;4464;50.882;4.730;2022-09-20T01:06:20;11.50;99.90
8856;DHT22;4464;50.882;4.730;2022-09-20T01:08:49;11.50;99.90
8856;DHT22;4464;50.882;4.730;2022-09-20T01:11:16;11.50;99.90
8856;DHT22;4464;50.882;4.730;2022-09-20T01:13:45;11.50;99.90
8856;DHT22;4464;50.882;4.730;2022-09-20T01:16:12;11.50;99.90
8856;DHT22;4464;50.882;4.730;2022-09-20T01:18:42;11.50;99.90
8856;DHT22;4464;50.882;4.730;2022-09-20T01:21:12;11.40;99.90
8856;DHT22;4464;50.882;4.730;2022-09-20T01:23:55;11.40;99.90
8856;DHT22;4464;50.882;4.730;2022-09-20T01:26:40;11.40;99.90
8856;DHT22;4464;50.882;4.730;2022-09-20T01:29:35;11.40;99.90
8856;DHT22;4464;50.882;4.730;2022-09-20T01:32:04;11.30;99.90
8856;DHT22;4464;50.882;4.730;2022-09-20T01:34:44;11.30;99.90
8856;DHT22;4464;50.882;4.730;2022-09-20T01:40:07;11.30;99.90
8856;DHT22;4464;50.882;4.730;2022-09-20T01:42:37;11.30;99.90
8856;DHT22;4464;50.882;4.730;2022-09-20T01:45:14;11.40;99.90
8856;DHT22;4464;50.882;4.730;2022-09-20T01:48:07;11.50;99.90
8856;DHT22;4464;50.882;4.730;2022-09-20T02:05:08;11.90;99.90
8856;DHT22;4464;50.882;4.730;2022-09-20T02:11:12;12.00;99.90
8856;DHT22;4464;50.882;4.730;2022-09-20T02:21:34;12.10;99.90
8856;DHT22;4464;50.882;4.730;2022-09-20T02:41:11;12.10;99.90
8856;DHT22;4464;50.882;4.730;2022-09-20T02:55:31;12.10;99.90
8856;DHT22;4464;50.882;4.730;2022-09-20T03:29:08;12.30;99.90
8856;DHT22;4464;50.882;4.730;2022-09-20T03:46:04;12.20;99.90
8856;DHT22;4464;50.882;4.730;2022-09-20T03:57:25;12.20;99.90
8856;DHT22;4464;50.882;4.730;2022-09-20T04:14:15;12.20;99.90
8856;DHT22;4464;50.882;4.730;2022-09-20T04:17:21;12.40;99.90
8856;DHT22;4464;50.882;4.730;2022-09-20T04:22:42;12.20;99.90
8856;DHT22;4464;50.882;4.730;2022-09-20T04:27:48;12.20;99.90
8856;DHT22;4464;50.882;4.730;2022-09-20T04:30:26;12.10;99.90
8856;DHT22;4464;50.882;4.730;2022-09-20T04:33:05;12.10;99.90
8856;DHT22;4464;50.882;4.730;2022-09-20T04:38:40;12.10;99.90
8856;DHT22;4464;50.882;4.730;2022-09-20T04:47:10;12.10;99.90
8856;DHT22;4464;50.882;4.730;2022-09-20T04:55:54;12.20;99.90
8856;DHT22;4464;50.882;4.730;2022-09-20T04:58:48;12.20;99.90
8856;DHT22;4464;50.882;4.730;2022-09-20T05:02:08;12.30;99.90
8856;DHT22;4464;50.882;4.730;2022-09-20T05:10:39;12.40;99.90
8856;DHT22;4464;50.882;4.730;2022-09-20T05:21:51;12.40;99.90
8856;DHT22;4464;50.882;4.730;2022-09-20T05:27:42;12.20;99.90
8856;DHT22;4464;50.882;4.730;2022-09-20T05:33:16;12.10;99.90
8856;DHT22;4464;50.882;4.730;2022-09-20T05:41:25;11.80;99.90
8856;DHT22;4464;50.882;4.730;2022-09-20T06:01:18;11.50;99.90
8856;DHT22;4464;50.882;4.730;2022-09-20T06:03:54;11.50;99.90
8856;DHT22;4464;50.882;4.730;2022-09-20T06:14:42;11.50;99.90
8856;DHT22;4464;50.882;4.730;2022-09-20T06:17:39;11.40;99.90
8856;DHT22;4464;50.882;4.730;2022-09-20T06:20:43;11.40;99.90
8856;DHT22;4464;50.882;4.730;2022-09-20T06:23:13;11.50;99.90
8856;DHT22;4464;50.882;4.730;2022-09-20T06:25:54;11.50;99.90
8856;DHT22;4464;50.882;4.730;2022-09-20T06:28:38;11.50;99.90
8856;DHT22;4464;50.882;4.730;2022-09-20T06:31:04;11.50;99.90
8856;DHT22;4464;50.882;4.730;2022-09-20T06:33:43;11.60;99.90
8856;DHT22;4464;50.882;4.730;2022-09-20T06:36:24;11.60;99.90
8856;DHT22;4464;50.882;4.730;2022-09-20T06:39:20;11.70;99.90
8856;DHT22;4464;50.882;4.730;2022-09-20T06:42:07;11.80;99.90
8856;DHT22;4464;50.882;4.730;2022-09-20T06:44:35;11.90;99.90
8856;DHT22;4464;50.882;4.730;2022-09-20T06:47:15;12.00;99.90
8856;DHT22;4464;50.882;4.730;2022-09-20T06:49:41;12.00;99.90
8856;DHT22;4464;50.882;4.730;2022-09-20T06:52:15;11.90;99.90
8856;DHT22;4464;50.882;4.730;2022-09-20T06:54:43;11.90;99.90
8856;DHT22;4464;50.882;4.730;2022-09-20T06:57:12;12.00;99.90
8856;DHT22;4464;50.882;4.730;2022-09-20T06:59:40;12.00;99.90
8856;DHT22;4464;50.882;4.730;2022-09-20T07:02:06;12.00;99.90
8856;DHT22;4464;50.882;4.730;2022-09-20T07:04:33;11.90;99.90
8856;DHT22;4464;50.882;4.730;2022-09-20T07:07:04;11.90;99.90
8856;DHT22;4464;50.882;4.730;2022-09-20T07:09:30;12.00;99.90
8856;DHT22;4464;50.882;4.730;2022-09-20T07:11:56;12.00;99.90
8856;DHT22;4464;50.882;4.730;2022-09-20T07:14:24;12.00;99.90
8856;DHT22;4464;50.882;4.730;2022-09-20T07:16:53;12.10;99.90
8856;DHT22;4464;50.882;4.730;2022-09-20T07:19:21;12.10;99.90
8856;DHT22;4464;50.882;4.730;2022-09-20T07:21:48;12.10;99.90
8856;DHT22;4464;50.882;4.730;2022-09-20T07:24:14;12.20;99.90
8856;DHT22;4464;50.882;4.730;2022-09-20T07:27:02;12.20;99.90
8856;DHT22;4464;50.882;4.730;2022-09-20T07:29:31;12.40;99.90
8856;DHT22;4464;50.882;4.730;2022-09-20T07:31:59;12.60;99.90
8856;DHT22;4464;50.882;4.730;2022-09-20T07:34:30;12.80;99.90
8856;DHT22;4464;50.882;4.730;2022-09-20T07:36:59;12.90;99.90
8856;DHT22;4464;50.882;4.730;2022-09-20T07:39:26;12.90;99.90
8856;DHT22;4464;50.882;4.730;2022-09-20T07:41:52;13.00;99.90
8856;DHT22;4464;50.882;4.730;2022-09-20T07:44:19;13.10;99.90
8856;DHT22;4464;50.882;4.730;2022-09-20T07:46:58;13.20;99.90
8856;DHT22;4464;50.882;4.730;2022-09-20T07:49:28;13.30;99.90
8856;DHT22;4464;50.882;4.730;2022-09-20T07:51:55;13.50;99.90
8856;DHT22;4464;50.882;4.730;2022-09-20T07:54:20;13.70;99.90
8856;DHT22;4464;50.882;4.730;2022-09-20T07:56:47;13.90;99.90
8856;DHT22;4464;50.882;4.730;2022-09-20T07:59:14;14.00;99.90
8856;DHT22;4464;50.882;4.730;2022-09-20T08:01:41;14.20;99.90
8856;DHT22;4464;50.882;4.730;2022-09-20T08:04:11;14.20;99.90
8856;DHT22;4464;50.882;4.730;2022-09-20T08:06:40;14.30;99.90
8856;DHT22;4464;50.882;4.730;2022-09-20T08:09:09;14.30;99.90
8856;DHT22;4464;50.882;4.730;2022-09-20T08:11:35;14.40;99.90
8856;DHT22;4464;50.882;4.730;2022-09-20T08:14:04;14.50;99.90
8856;DHT22;4464;50.882;4.730;2022-09-20T08:16:37;14.60;99.90
8856;DHT22;4464;50.882;4.730;2022-09-20T08:19:03;14.80;99.90
8856;DHT22;4464;50.882;4.730;2022-09-20T08:21:31;15.00;99.90
8856;DHT22;4464;50.882;4.730;2022-09-20T08:24:00;15.20;99.90
8856;DHT22;4464;50.882;4.730;2022-09-20T08:26:27;15.50;99.90
8856;DHT22;4464;50.882;4.730;2022-09-20T08:28:55;15.70;99.90
8856;DHT22;4464;50.882;4.730;2022-09-20T08:31:24;15.80;99.90
8856;DHT22;4464;50.882;4.730;2022-09-20T08:33:52;15.90;99.90
8856;DHT22;4464;50.882;4.730;2022-09-20T08:36:24;15.80;99.90
8856;DHT22;4464;50.882;4.730;2022-09-20T08:38:50;15.90;99.90
8856;DHT22;4464;50.882;4.730;2022-09-20T08:44:01;16.00;99.90
8856;DHT22;4464;50.882;4.730;2022-09-20T08:46:36;15.90;99.90
8856;DHT22;4464;50.882;4.730;2022-09-20T08:49:06;15.70;99.90
8856;DHT22;4464;50.882;4.730;2022-09-20T08:51:41;15.60;99.90
8856;DHT22;4464;50.882;4.730;2022-09-20T08:54:15;15.50;99.90
8856;DHT22;4464;50.882;4.730;2022-09-20T08:56:41;15.60;99.90
8856;DHT22;4464;50.882;4.730;2022-09-20T08:59:15;15.70;99.90
8856;DHT22;4464;50.882;4.730;2022-09-20T09:01:43;15.70;99.90
8856;DHT22;4464;50.882;4.730;2022-09-20T09:04:13;15.70;99.90
8856;DHT22;4464;50.882;4.730;2022-09-20T09:06:40;15.70;99.90
8856;DHT22;4464;50.882;4.730;2022-09-20T09:09:19;15.80;99.90
8856;DHT22;4464;50.882;4.730;2022-09-20T09:11:48;16.20;99.90
8856;DHT22;4464;50.882;4.730;2022-09-20T09:14:33;16.40;99.90
8856;DHT22;4464;50.882;4.730;2022-09-20T09:17:26;16.50;99.90
8856;DHT22;4464;50.882;4.730;2022-09-20T09:20:14;16.50;99.90
8856;DHT22;4464;50.882;4.730;2022-09-20T09:22:43;16.50;99.90
8856;DHT22;4464;50.882;4.730;2022-09-20T09:25:27;16.40;99.90
8856;DHT22;4464;50.882;4.730;2022-09-20T09:30:46;16.60;99.90
8856;DHT22;4464;50.882;4.730;2022-09-20T09:33:32;16.80;99.90
8856;DHT22;4464;50.882;4.730;2022-09-20T09:36:15;17.10;99.90
8856;DHT22;4464;50.882;4.730;2022-09-20T09:38:44;17.40;99.90
8856;DHT22;4464;50.882;4.730;2022-09-20T09:44:19;17.50;99.90
8856;DHT22;4464;50.882;4.730;2022-09-20T09:46:43;17.70;99.90
8856;DHT22;4464;50.882;4.730;2022-09-20T09:49:29;18.20;99.90
8856;DHT22;4464;50.882;4.730;2022-09-20T09:52:17;18.50;99.90
8856;DHT22;4464;50.882;4.730;2022-09-20T09:54:55;18.40;99.90
8856;DHT22;4464;50.882;4.730;2022-09-20T10:00:15;18.60;99.90
8856;DHT22;4464;50.882;4.730;2022-09-20T10:09:12;19.50;99.90
8856;DHT22;4464;50.882;4.730;2022-09-20T10:11:45;20.20;99.90
8856;DHT22;4464;50.882;4.730;2022-09-20T10:30:19;20.10;99.90
8856;DHT22;4464;50.882;4.730;2022-09-20T10:35:42;20.00;99.90
8856;DHT22;4464;50.882;4.730;2022-09-20T10:38:18;18.90;99.90
8856;DHT22;4464;50.882;4.730;2022-09-20T10:41:12;19.00;99.90
8856;DHT22;4464;50.882;4.730;2022-09-20T10:44:23;18.70;99.90
8856;DHT22;4464;50.882;4.730;2022-09-20T10:47:13;18.90;99.90
8856;DHT22;4464;50.882;4.730;2022-09-20T11:10:26;17.00;99.90
8856;DHT22;4464;50.882;4.730;2022-09-20T11:15:48;17.60;99.90
8856;DHT22;4464;50.882;4.730;2022-09-20T11:23:59;17.20;99.90
8856;DHT22;4464;50.882;4.730;2022-09-20T11:29:34;18.80;99.90
8856;DHT22;4464;50.882;4.730;2022-09-20T11:32:18;20.10;99.90
8856;DHT22;4464;50.882;4.730;2022-09-20T11:34:52;19.90;99.90
8856;DHT22;4464;50.882;4.730;2022-09-20T11:37:24;18.90;99.90
8856;DHT22;4464;50.882;4.730;2022-09-20T11:39:53;19.70;99.90
8856;DHT22;4464;50.882;4.730;2022-09-20T11:42:31;20.30;99.90
8856;DHT22;4464;50.882;4.730;2022-09-20T11:44:58;21.30;99.90
8856;DHT22;4464;50.882;4.730;2022-09-20T11:58:25;23.80;97.00
8856;DHT22;4464;50.882;4.730;2022-09-20T12:00:54;22.60;96.50
8856;DHT22;4464;50.882;4.730;2022-09-20T12:05:58;23.20;98.30
8856;DHT22;4464;50.882;4.730;2022-09-20T12:08:37;24.90;96.20
8856;DHT22;4464;50.882;4.730;2022-09-20T12:11:14;23.50;95.20
8856;DHT22;4464;50.882;4.730;2022-09-20T12:13:51;22.60;96.80
8856;DHT22;4464;50.882;4.730;2022-09-20T12:19:05;19.90;99.90
8856;DHT22;4464;50.882;4.730;2022-09-20T12:22:36;19.60;99.90
8856;DHT22;4464;50.882;4.730;2022-09-20T12:24:38;20.20;99.90
8856;DHT22;4464;50.882;4.730;2022-09-20T12:30:19;20.90;99.90
8856;DHT22;4464;50.882;4.730;2022-09-20T12:32:50;20.60;99.90
8856;DHT22;4464;50.882;4.730;2022-09-20T12:43:30;20.40;99.90
8856;DHT22;4464;50.882;4.730;2022-09-20T12:45:57;20.10;99.90
8856;DHT22;4464;50.882;4.730;2022-09-20T12:48:25;19.60;99.90
8856;DHT22;4464;50.882;4.730;2022-09-20T12:54:04;20.60;99.90
8856;DHT22;4464;50.882;4.730;2022-09-20T12:59:18;24.50;97.80
8856;DHT22;4464;50.882;4.730;2022-09-20T13:01:45;25.50;95.70
8856;DHT22;4464;50.882;4.730;2022-09-20T13:04:53;24.80;95.20
8856;DHT22;4464;50.882;4.730;2022-09-20T13:07:43;23.40;95.50
8856;DHT22;4464;50.882;4.730;2022-09-20T13:10:32;23.80;96.20
8856;DHT22;4464;50.882;4.730;2022-09-20T13:13:12;24.70;94.90
8856;DHT22;4464;50.882;4.730;2022-09-20T13:15:43;24.60;92.90
8856;DHT22;4464;50.882;4.730;2022-09-20T13:18:14;23.90;94.30
8856;DHT22;4464;50.882;4.730;2022-09-20T13:20:40;23.50;94.70
8856;DHT22;4464;50.882;4.730;2022-09-20T13:23:19;23.60;94.00
8856;DHT22;4464;50.882;4.730;2022-09-20T13:25:47;24.00;93.40
8856;DHT22;4464;50.882;4.730;2022-09-20T13:28:25;24.70;94.10
8856;DHT22;4464;50.882;4.730;2022-09-20T13:31:24;24.00;94.20
8856;DHT22;4464;50.882;4.730;2022-09-20T13:33:51;21.60;95.30
8856;DHT22;4464;50.882;4.730;2022-09-20T13:36:35;20.00;97.10
8856;DHT22;4464;50.882;4.730;2022-09-20T13:39:05;19.80;98.10
8856;DHT22;4464;50.882;4.730;2022-09-20T13:41:31;20.00;98.10
8856;DHT22;4464;50.882;4.730;2022-09-20T13:44:00;20.20;98.30
8856;DHT22;4464;50.882;4.730;2022-09-20T13:46:32;20.40;98.20
8856;DHT22;4464;50.882;4.730;2022-09-20T13:49:16;20.80;97.70
8856;DHT22;4464;50.882;4.730;2022-09-20T13:51:46;19.90;98.10
8856;DHT22;4464;50.882;4.730;2022-09-20T13:56:44;19.00;99.70
8856;DHT22;4464;50.882;4.730;2022-09-20T13:59:12;18.90;99.90
8856;DHT22;4464;50.882;4.730;2022-09-20T14:01:51;19.60;99.90
8856;DHT22;4464;50.882;4.730;2022-09-20T14:04:21;20.20;99.10
8856;DHT22;4464;50.882;4.730;2022-09-20T14:06:50;20.10;99.40
8856;DHT22;4464;50.882;4.730;2022-09-20T14:09:37;19.70;99.70
8856;DHT22;4464;50.882;4.730;2022-09-20T14:12:10;19.10;99.90
8856;DHT22;4464;50.882;4.730;2022-09-20T14:14:37;18.80;99.90
8856;DHT22;4464;50.882;4.730;2022-09-20T14:17:07;18.80;99.90
8856;DHT22;4464;50.882;4.730;2022-09-20T14:19:39;19.40;99.90
8856;DHT22;4464;50.882;4.730;2022-09-20T14:22:06;21.20;99.90
8856;DHT22;4464;50.882;4.730;2022-09-20T14:24:36;22.40;97.90
8856;DHT22;4464;50.882;4.730;2022-09-20T14:27:19;22.10;97.10
8856;DHT22;4464;50.882;4.730;2022-09-20T14:29:52;20.40;98.50
8856;DHT22;4464;50.882;4.730;2022-09-20T14:37:29;18.90;99.90
8856;DHT22;4464;50.882;4.730;2022-09-20T14:39:58;20.30;99.90
8856;DHT22;4464;50.882;4.730;2022-09-20T14:42:42;21.90;99.10
8856;DHT22;4464;50.882;4.730;2022-09-20T14:45:32;23.50;97.10
8856;DHT22;4464;50.882;4.730;2022-09-20T14:48:03;21.80;97.50
8856;DHT22;4464;50.882;4.730;2022-09-20T14:50:33;20.70;99.10
8856;DHT22;4464;50.882;4.730;2022-09-20T14:53:21;19.80;99.90
8856;DHT22;4464;50.882;4.730;2022-09-20T14:55:56;19.20;99.90
8856;DHT22;4464;50.882;4.730;2022-09-20T14:58:23;18.90;99.90
8856;DHT22;4464;50.882;4.730;2022-09-20T15:03:35;18.10;99.90
8856;DHT22;4464;50.882;4.730;2022-09-20T15:06:02;17.90;99.90
8856;DHT22;4464;50.882;4.730;2022-09-20T15:08:28;17.70;99.90
8856;DHT22;4464;50.882;4.730;2022-09-20T15:10:56;17.70;99.90
8856;DHT22;4464;50.882;4.730;2022-09-20T15:13:23;17.60;99.90
8856;DHT22;4464;50.882;4.730;2022-09-20T15:15:50;17.50;99.90
8856;DHT22;4464;50.882;4.730;2022-09-20T15:18:22;17.40;99.90
8856;DHT22;4464;50.882;4.730;2022-09-20T15:20:49;17.40;99.90
8856;DHT22;4464;50.882;4.730;2022-09-20T15:23:16;17.40;99.90
8856;DHT22;4464;50.882;4.730;2022-09-20T15:25:42;17.40;99.90
8856;DHT22;4464;50.882;4.730;2022-09-20T15:28:12;17.30;99.90
8856;DHT22;4464;50.882;4.730;2022-09-20T15:30:49;17.30;99.90
8856;DHT22;4464;50.882;4.730;2022-09-20T15:33:17;17.30;99.90
8856;DHT22;4464;50.882;4.730;2022-09-20T15:35:44;17.20;99.90
8856;DHT22;4464;50.882;4.730;2022-09-20T15:38:13;17.20;99.90
8856;DHT22;4464;50.882;4.730;2022-09-20T15:40:41;17.20;99.90
8856;DHT22;4464;50.882;4.730;2022-09-20T15:43:13;17.80;99.90
8856;DHT22;4464;50.882;4.730;2022-09-20T15:45:50;18.10;99.90
8856;DHT22;4464;50.882;4.730;2022-09-20T15:48:21;19.00;99.90
8856;DHT22;4464;50.882;4.730;2022-09-20T15:51:04;19.70;99.90
8856;DHT22;4464;50.882;4.730;2022-09-20T15:53:38;20.10;99.90
8856;DHT22;4464;50.882;4.730;2022-09-20T15:58:43;20.60;99.90
8856;DHT22;4464;50.882;4.730;2022-09-20T16:01:10;20.10;99.90
8856;DHT22;4464;50.882;4.730;2022-09-20T16:03:39;19.20;99.90
8856;DHT22;4464;50.882;4.730;2022-09-20T16:06:06;18.10;99.90
8856;DHT22;4464;50.882;4.730;2022-09-20T16:08:38;17.50;99.90
8856;DHT22;4464;50.882;4.730;2022-09-20T16:11:05;17.10;99.90
8856;DHT22;4464;50.882;4.730;2022-09-20T16:13:32;17.00;99.90
8856;DHT22;4464;50.882;4.730;2022-09-20T16:15:59;16.90;99.90
8856;DHT22;4464;50.882;4.730;2022-09-20T16:18:27;16.80;99.90
8856;DHT22;4464;50.882;4.730;2022-09-20T16:21:18;16.80;99.90
8856;DHT22;4464;50.882;4.730;2022-09-20T16:23:51;16.80;99.90
8856;DHT22;4464;50.882;4.730;2022-09-20T16:26:18;16.80;99.90
8856;DHT22;4464;50.882;4.730;2022-09-20T16:28:45;16.80;99.90
8856;DHT22;4464;50.882;4.730;2022-09-20T16:31:46;16.80;99.90
8856;DHT22;4464;50.882;4.730;2022-09-20T16:36:41;16.80;99.90
8856;DHT22;4464;50.882;4.730;2022-09-20T16:39:10;16.60;99.90
8856;DHT22;4464;50.882;4.730;2022-09-20T16:41:37;16.50;99.90
8856;DHT22;4464;50.882;4.730;2022-09-20T16:44:06;16.40;99.90
8856;DHT22;4464;50.882;4.730;2022-09-20T16:46:33;16.60;99.90
8856;DHT22;4464;50.882;4.730;2022-09-20T16:49:05;16.60;99.90
8856;DHT22;4464;50.882;4.730;2022-09-20T16:51:34;16.80;99.90
8856;DHT22;4464;50.882;4.730;2022-09-20T16:54:08;16.80;99.90
8856;DHT22;4464;50.882;4.730;2022-09-20T16:56:39;16.80;99.90
8856;DHT22;4464;50.882;4.730;2022-09-20T16:59:05;16.70;99.90
8856;DHT22;4464;50.882;4.730;2022-09-20T17:01:36;16.60;99.90
8856;DHT22;4464;50.882;4.730;2022-09-20T17:04:03;16.60;99.90
8856;DHT22;4464;50.882;4.730;2022-09-20T17:06:33;16.50;99.90
8856;DHT22;4464;50.882;4.730;2022-09-20T17:09:00;16.50;99.90
8856;DHT22;4464;50.882;4.730;2022-09-20T17:11:29;16.50;99.90
8856;DHT22;4464;50.882;4.730;2022-09-20T17:13:55;16.50;99.90
8856;DHT22;4464;50.882;4.730;2022-09-20T17:16:26;16.40;99.90
8856;DHT22;4464;50.882;4.730;2022-09-20T17:18:56;16.40;99.90
8856;DHT22;4464;50.882;4.730;2022-09-20T17:21:23;16.40;99.90
8856;DHT22;4464;50.882;4.730;2022-09-20T17:23:54;16.30;99.90
8856;DHT22;4464;50.882;4.730;2022-09-20T17:26:29;16.20;99.90
8856;DHT22;4464;50.882;4.730;2022-09-20T17:29:02;16.00;99.90
8856;DHT22;4464;50.882;4.730;2022-09-20T17:31:30;15.80;99.90
8856;DHT22;4464;50.882;4.730;2022-09-20T17:34:05;15.70;99.90
8856;DHT22;4464;50.882;4.730;2022-09-20T17:36:42;15.70;99.90
8856;DHT22;4464;50.882;4.730;2022-09-20T17:39:10;15.50;99.90
8856;DHT22;4464;50.882;4.730;2022-09-20T17:41:38;15.20;99.90
8856;DHT22;4464;50.882;4.730;2022-09-20T17:44:04;15.00;99.90
8856;DHT22;4464;50.882;4.730;2022-09-20T17:46:35;15.00;99.90
8856;DHT22;4464;50.882;4.730;2022-09-20T17:49:22;15.00;99.90
8856;DHT22;4464;50.882;4.730;2022-09-20T17:51:50;14.90;99.90
8856;DHT22;4464;50.882;4.730;2022-09-20T17:54:19;15.00;99.90
8856;DHT22;4464;50.882;4.730;2022-09-20T17:56:48;15.10;99.90
8856;DHT22;4464;50.882;4.730;2022-09-20T17:59:17;15.10;99.90
8856;DHT22;4464;50.882;4.730;2022-09-20T18:01:45;15.20;99.90
8856;DHT22;4464;50.882;4.730;2022-09-20T18:04:14;15.30;99.90
8856;DHT22;4464;50.882;4.730;2022-09-20T18:06:48;15.40;99.90
8856;DHT22;4464;50.882;4.730;2022-09-20T18:09:20;15.40;99.90
8856;DHT22;4464;50.882;4.730;2022-09-20T18:11:51;15.40;99.90
8856;DHT22;4464;50.882;4.730;2022-09-20T18:14:19;15.50;99.90
8856;DHT22;4464;50.882;4.730;2022-09-20T18:16:45;15.50;99.90
8856;DHT22;4464;50.882;4.730;2022-09-20T18:19:12;15.50;99.90
8856;DHT22;4464;50.882;4.730;2022-09-20T18:21:40;15.60;99.90
8856;DHT22;4464;50.882;4.730;2022-09-20T18:24:10;15.60;99.90
8856;DHT22;4464;50.882;4.730;2022-09-20T18:26:36;15.60;99.90
8856;DHT22;4464;50.882;4.730;2022-09-20T18:29:06;15.70;99.90
8856;DHT22;4464;50.882;4.730;2022-09-20T18:31:39;15.70;99.90
8856;DHT22;4464;50.882;4.730;2022-09-20T18:34:12;15.60;99.90
8856;DHT22;4464;50.882;4.730;2022-09-20T18:36:40;15.70;99.90
8856;DHT22;4464;50.882;4.730;2022-09-20T18:39:10;15.50;99.90
8856;DHT22;4464;50.882;4.730;2022-09-20T18:41:38;15.50;99.90
8856;DHT22;4464;50.882;4.730;2022-09-20T18:44:06;15.40;99.90
8856;DHT22;4464;50.882;4.730;2022-09-20T18:46:34;15.30;99.90
8856;DHT22;4464;50.882;4.730;2022-09-20T18:49:07;15.40;99.90
8856;DHT22;4464;50.882;4.730;2022-09-20T18:51:34;15.40;99.90
8856;DHT22;4464;50.882;4.730;2022-09-20T18:54:07;15.40;99.90
8856;DHT22;4464;50.882;4.730;2022-09-20T18:56:39;15.40;99.90
8856;DHT22;4464;50.882;4.730;2022-09-20T19:05:01;15.20;99.90
8856;DHT22;4464;50.882;4.730;2022-09-20T19:10:39;15.10;99.90
8856;DHT22;4464;50.882;4.730;2022-09-20T19:13:42;15.00;99.90
8856;DHT22;4464;50.882;4.730;2022-09-20T19:19:03;14.70;99.90
8856;DHT22;4464;50.882;4.730;2022-09-20T19:25:03;14.60;99.90
8856;DHT22;4464;50.882;4.730;2022-09-20T19:27:32;14.50;99.90
8856;DHT22;4464;50.882;4.730;2022-09-20T19:30:02;14.50;99.90
8856;DHT22;4464;50.882;4.730;2022-09-20T19:32:30;14.50;99.90
8856;DHT22;4464;50.882;4.730;2022-09-20T19:34:56;14.60;99.90
8856;DHT22;4464;50.882;4.730;2022-09-20T19:43:55;14.40;99.90
8856;DHT22;4464;50.882;4.730;2022-09-20T19:49:15;14.30;99.90
8856;DHT22;4464;50.882;4.730;2022-09-20T19:51:47;14.20;99.90
8856;DHT22;4464;50.882;4.730;2022-09-20T19:54:16;14.20;99.90
8856;DHT22;4464;50.882;4.730;2022-09-20T19:56:55;14.30;99.90
8856;DHT22;4464;50.882;4.730;2022-09-20T19:59:26;14.30;99.90
8856;DHT22;4464;50.882;4.730;2022-09-20T20:01:53;14.20;99.90
8856;DHT22;4464;50.882;4.730;2022-09-20T20:04:19;14.20;99.90
8856;DHT22;4464;50.882;4.730;2022-09-20T20:18:17;13.90;99.90
8856;DHT22;4464;50.882;4.730;2022-09-20T20:20:50;13.80;99.90
8856;DHT22;4464;50.882;4.730;2022-09-20T20:26:23;13.60;99.90
8856;DHT22;4464;50.882;4.730;2022-09-20T20:28:49;13.60;99.90
8856;DHT22;4464;50.882;4.730;2022-09-20T20:31:20;13.40;99.90
8856;DHT22;4464;50.882;4.730;2022-09-20T20:33:47;13.50;99.90
8856;DHT22;4464;50.882;4.730;2022-09-20T20:36:15;13.30;99.90
8856;DHT22;4464;50.882;4.730;2022-09-20T20:38:44;13.20;99.90
8856;DHT22;4464;50.882;4.730;2022-09-20T20:41:16;13.00;99.90
8856;DHT22;4464;50.882;4.730;2022-09-20T20:43:44;13.10;99.90
8856;DHT22;4464;50.882;4.730;2022-09-20T20:46:16;13.00;99.90
8856;DHT22;4464;50.882;4.730;2022-09-20T20:48:43;12.90;99.90
8856;DHT22;4464;50.882;4.730;2022-09-20T20:51:16;12.80;99.90
8856;DHT22;4464;50.882;4.730;2022-09-20T20:53:47;12.80;99.90
8856;DHT22;4464;50.882;4.730;2022-09-20T20:56:35;12.70;99.90
8856;DHT22;4464;50.882;4.730;2022-09-20T20:59:02;12.70;99.90
8856;DHT22;4464;50.882;4.730;2022-09-20T21:03:56;12.50;99.90
8856;DHT22;4464;50.882;4.730;2022-09-20T21:06:35;12.40;99.90
8856;DHT22;4464;50.882;4.730;2022-09-20T21:09:02;12.30;99.90
8856;DHT22;4464;50.882;4.730;2022-09-20T21:11:38;12.40;99.90
8856;DHT22;4464;50.882;4.730;2022-09-20T21:14:09;12.30;99.90
8856;DHT22;4464;50.882;4.730;2022-09-20T21:16:39;12.20;99.90
8856;DHT22;4464;50.882;4.730;2022-09-20T21:19:08;12.10;99.90
8856;DHT22;4464;50.882;4.730;2022-09-20T21:21:36;12.00;99.90
8856;DHT22;4464;50.882;4.730;2022-09-20T21:24:08;12.00;99.90
8856;DHT22;4464;50.882;4.730;2022-09-20T21:26:37;11.90;99.90
8856;DHT22;4464;50.882;4.730;2022-09-20T21:29:05;11.80;99.90
8856;DHT22;4464;50.882;4.730;2022-09-20T21:31:34;11.80;99.90
8856;DHT22;4464;50.882;4.730;2022-09-20T21:34:00;11.80;99.90
8856;DHT22;4464;50.882;4.730;2022-09-20T21:36:30;11.70;99.90
8856;DHT22;4464;50.882;4.730;2022-09-20T21:38:55;11.60;99.90
8856;DHT22;4464;50.882;4.730;2022-09-20T21:41:26;11.50;99.90
8856;DHT22;4464;50.882;4.730;2022-09-20T21:43:59;11.50;99.90
8856;DHT22;4464;50.882;4.730;2022-09-20T21:46:30;11.40;99.90
8856;DHT22;4464;50.882;4.730;2022-09-20T21:48:58;11.40;99.90
8856;DHT22;4464;50.882;4.730;2022-09-20T21:51:25;11.30;99.90
8856;DHT22;4464;50.882;4.730;2022-09-20T21:53:53;11.30;99.90
8856;DHT22;4464;50.882;4.730;2022-09-20T21:56:21;11.30;99.90
8856;DHT22;4464;50.882;4.730;2022-09-20T21:58:46;11.20;99.90
8856;DHT22;4464;50.882;4.730;2022-09-20T22:01:15;11.20;99.90
8856;DHT22;4464;50.882;4.730;2022-09-20T22:03:45;11.10;99.90
8856;DHT22;4464;50.882;4.730;2022-09-20T22:08:50;11.10;99.90
8856;DHT22;4464;50.882;4.730;2022-09-20T22:11:17;11.00;99.90
8856;DHT22;4464;50.882;4.730;2022-09-20T22:13:48;11.00;99.90
8856;DHT22;4464;50.882;4.730;2022-09-20T22:16:17;11.00;99.90
8856;DHT22;4464;50.882;4.730;2022-09-20T22:18:49;10.90;99.90
8856;DHT22;4464;50.882;4.730;2022-09-20T22:21:18;11.00;99.90
8856;DHT22;4464;50.882;4.730;2022-09-20T22:23:48;11.00;99.90
8856;DHT22;4464;50.882;4.730;2022-09-20T22:26:16;11.00;99.90
8856;DHT22;4464;50.882;4.730;2022-09-20T22:28:43;10.90;99.90
8856;DHT22;4464;50.882;4.730;2022-09-20T22:31:12;10.90;99.90
8856;DHT22;4464;50.882;4.730;2022-09-20T22:33:44;10.80;99.90
8856;DHT22;4464;50.882;4.730;2022-09-20T22:36:16;10.80;99.90